Time;durP1;ratioP1;P1;durP2;ratioP2;P2;SDS_P1;SDS_P2;PMS_P1;PMS_P2;Temp;Humidity;BMP_temperature;BMP_pressure;BME280_temperature;BME280_humidity;BME280_pressure;Samples;Min_cycle;Max_cycle;Signal;HPM_P1;HPM_P2
2022/08/07 00:00:14;;;;;;;;;;;;;;;;;;5044612;28;20019;-58
2022/08/07 00:02:39;;;;;;;;;;;;;;;;;;5044753;28;19916;-58
2022/08/07 00:05:04;;;;;;;;;;;;;;;;;;5043494;28;19966;-60
2022/08/07 00:07:29;;;;;;;;;;;;;;;;;;5044154;28;19924;-60
2022/08/07 00:09:55;;;;;;;;;;;;;;;;;;5048870;28;19923;-59
2022/08/07 00:12:20;;;;;;;;;;;;;;;;;;5044026;28;19917;-59
2022/08/07 00:14:45;;;;;;;;;;;;;;;;;;5050058;28;19917;-59
2022/08/07 00:17:10;;;;;;;;;;;;;;;;;;5045293;28;20019;-59
2022/08/07 00:19:35;;;;;;;;;;;;;;;;;;5041824;28;19912;-58
2022/08/07 00:22:01;;;;;;;;;;;;;;;;;;5050325;28;19927;-60
2022/08/07 00:24:26;;;;;;;;;;;;;;;;;;5045135;28;19917;-58
2022/08/07 00:26:51;;;;;;;;;;;;;;;;;;5051251;28;19920;-59
2022/08/07 00:29:18;;;;;;;;;;;;;;;;;;5031547;28;19932;-59
2022/08/07 00:31:43;;;;;;;;;;;;;;;;;;5033220;28;19942;-60
2022/08/07 00:34:08;;;;;;;;;;;;;;;;;;5050117;28;19924;-58
2022/08/07 00:36:33;;;;;;;;;;;;;;;;;;5045220;28;20386;-60
2022/08/07 00:38:58;;;;;;;;;;;;;;;;;;5050369;28;20934;-58
2022/08/07 00:41:24;;;;;;;;;;;;;;;;;;5044811;28;20755;-58
2022/08/07 00:43:49;;;;;;;;;;;;;;;;;;5018808;28;20602;-58
2022/08/07 00:46:14;;;;;;;;;;;;;;;;;;5051615;28;19991;-58
2022/08/07 00:48:39;;;;;;;;;;;;;;;;;;5044253;28;20030;-58
2022/08/07 00:51:04;;;;;;;;;;;;;;;;;;5033058;28;19925;-58
2022/08/07 00:53:29;;;;;;;;;;;;;;;;;;5029960;28;19963;-59
2022/08/07 00:55:55;;;;;;;;;;;;;;;;;;5030407;28;19921;-58
2022/08/07 00:58:20;;;;;;;;;;;;;;;;;;5036981;28;19921;-59
2022/08/07 01:00:45;;;;;;;;;;;;;;;;;;5043799;28;19917;-58
2022/08/07 01:03:11;;;;;;;;;;;;;;;;;;5032046;28;19917;-59
2022/08/07 01:05:36;;;;;;;;;;;;;;;;;;5030569;28;19916;-58
2022/08/07 01:08:01;;;;;;;;;;;;;;;;;;5027419;28;19975;-58
2022/08/07 01:10:27;;;;;;;;;;;;;;;;;;5051202;28;20035;-58
2022/08/07 01:12:52;;;;;;;;;;;;;;;;;;5029893;28;19928;-58
2022/08/07 01:15:17;;;;;;;;;;;;;;;;;;5035208;28;20432;-58
2022/08/07 01:17:42;;;;;;;;;;;;;;;;;;5030662;28;19962;-59
2022/08/07 01:20:08;;;;;;;;;;;;;;;;;;5030718;28;19921;-58
2022/08/07 01:22:33;;;;;;;;;;;;;;;;;;5035756;28;19921;-58
2022/08/07 01:24:58;;;;;;;;;;;;;;;;;;5046330;28;19917;-59
2022/08/07 01:27:23;;;;;;;;;;;;;;;;;;5034578;28;19920;-58
2022/08/07 01:29:48;;;;;;;;;;;;;;;;;;5027143;28;19976;-58
2022/08/07 01:32:14;;;;;;;;;;;;;;;;;;5027444;28;19970;-58
2022/08/07 01:34:44;;;;;;;;;;;;;;;;;;5032446;28;20320;-59
2022/08/07 01:37:11;;;;;;;;;;;;;;;;;;5031954;28;20004;-58
2022/08/07 01:39:38;;;;;;;;;;;;;;;;;;5033778;28;19962;-59
2022/08/07 01:42:06;;;;;;;;;;;;;;;;;;5027676;28;19927;-58
2022/08/07 01:44:33;;;;;;;;;;;;;;;;;;5017311;28;19920;-59
2022/08/07 01:46:58;;;;;;;;;;;;;;;;;;5038370;28;20277;-58
2022/08/07 01:49:25;;;;;;;;;;;;;;;;;;5033405;28;19978;-57
2022/08/07 01:51:51;;;;;;;;;;;;;;;;;;5035712;28;20007;-59
2022/08/07 01:54:16;;;;;;;;;;;;;;;;;;5034059;28;19916;-57
2022/08/07 01:56:46;;;;;;;;;;;;;;;;;;5027556;28;20521;-57
2022/08/07 01:59:11;;;;;;;;;;;;;;;;;;5046651;28;20019;-58
2022/08/07 02:01:36;;;;;;;;;;;;;;;;;;5028714;28;20028;-57
2022/08/07 02:04:01;;;;;;;;;;;;;;;;;;5033457;28;19921;-59
2022/08/07 02:06:29;;;;;;;;;;;;;;;;;;5033006;28;19981;-57
2022/08/07 02:08:55;;;;;;;;;;;;;;;;;;5027753;28;20396;-58
2022/08/07 02:11:24;;;;;;;;;;;;;;;;;;5035282;28;19917;-57
2022/08/07 02:13:49;;;;;;;;;;;;;;;;;;5032766;28;19917;-58
2022/08/07 02:16:16;;;;;;;;;;;;;;;;;;5032376;28;20281;-58
2022/08/07 02:18:41;;;;;;;;;;;;;;;;;;5038427;28;20017;-58
2022/08/07 02:21:07;;;;;;;;;;;;;;;;;;5043135;28;20135;-57
2022/08/07 02:23:33;;;;;;;;;;;;;;;;;;5030878;28;19920;-56
2022/08/07 02:25:58;;;;;;;;;;;;;;;;;;5028635;28;20019;-58
2022/08/07 02:28:23;;;;;;;;;;;;;;;;;;5033702;28;19927;-57
2022/08/07 02:30:49;;;;;;;;;;;;;;;;;;5037189;28;19994;-55
2022/08/07 02:33:15;;;;;;;;;;;;;;;;;;5043650;28;19912;-57
2022/08/07 02:35:40;;;;;;;;;;;;;;;;;;5039068;28;19957;-57
2022/08/07 02:38:07;;;;;;;;;;;;;;;;;;5035389;28;20054;-58
2022/08/07 02:40:34;;;;;;;;;;;;;;;;;;5046367;28;20033;-59
2022/08/07 02:42:59;;;;;;;;;;;;;;;;;;5040651;28;19967;-58
2022/08/07 02:45:25;;;;;;;;;;;;;;;;;;5032179;28;19921;-57
2022/08/07 02:47:51;;;;;;;;;;;;;;;;;;5038637;28;19980;-57
2022/08/07 02:50:17;;;;;;;;;;;;;;;;;;5047284;28;20087;-57
2022/08/07 02:52:42;;;;;;;;;;;;;;;;;;5030041;28;20703;-58
2022/08/07 02:55:08;;;;;;;;;;;;;;;;;;5037908;28;19917;-59
2022/08/07 02:57:33;;;;;;;;;;;;;;;;;;5032342;28;20020;-58
2022/08/07 02:59:59;;;;;;;;;;;;;;;;;;5034208;28;20003;-58
2022/08/07 03:02:24;;;;;;;;;;;;;;;;;;5027426;28;19923;-58
2022/08/07 03:04:49;;;;;;;;;;;;;;;;;;5033954;28;20408;-58
2022/08/07 03:07:14;;;;;;;;;;;;;;;;;;5037784;28;19927;-58
2022/08/07 03:09:40;;;;;;;;;;;;;;;;;;5031389;28;20016;-58
2022/08/07 03:12:06;;;;;;;;;;;;;;;;;;5038685;28;19916;-58
2022/08/07 03:14:35;;;;;;;;;;;;;;;;;;5035373;28;19927;-58
2022/08/07 03:17:00;;;;;;;;;;;;;;;;;;5038454;28;19974;-57
2022/08/07 03:19:25;;;;;;;;;;;;;;;;;;5036424;28;19920;-58
2022/08/07 03:21:50;;;;;;;;;;;;;;;;;;5031250;28;20379;-56
2022/08/07 03:24:15;;;;;;;;;;;;;;;;;;5036203;28;20372;-58
2022/08/07 03:26:41;;;;;;;;;;;;;;;;;;5030378;28;20011;-58
2022/08/07 03:29:06;;;;;;;;;;;;;;;;;;5032958;28;19944;-57
2022/08/07 03:31:32;;;;;;;;;;;;;;;;;;5040923;28;20771;-57
2022/08/07 03:33:58;;;;;;;;;;;;;;;;;;5046982;28;20736;-58
2022/08/07 03:36:23;;;;;;;;;;;;;;;;;;5040103;28;19917;-57
2022/08/07 03:38:48;;;;;;;;;;;;;;;;;;5029619;28;19924;-58
2022/08/07 03:41:14;;;;;;;;;;;;;;;;;;5030945;28;19960;-58
2022/08/07 03:43:39;;;;;;;;;;;;;;;;;;5037390;28;20003;-58
2022/08/07 03:46:05;;;;;;;;;;;;;;;;;;5032168;28;19958;-57
2022/08/07 03:48:31;;;;;;;;;;;;;;;;;;5036535;28;19936;-58
2022/08/07 03:50:57;;;;;;;;;;;;;;;;;;5031060;28;19966;-58
2022/08/07 03:53:22;;;;;;;;;;;;;;;;;;5034730;28;20047;-58
2022/08/07 03:55:47;;;;;;;;;;;;;;;;;;5051860;28;19995;-56
2022/08/07 03:58:13;;;;;;;;;;;;;;;;;;5034300;28;19920;-57
2022/08/07 04:00:38;;;;;;;;;;;;;;;;;;5041098;28;19916;-58
2022/08/07 04:03:03;;;;;;;;;;;;;;;;;;5048762;28;20180;-59
2022/08/07 04:05:33;;;;;;;;;;;;;;;;;;5031338;28;20710;-58
2022/08/07 04:07:58;;;;;;;;;;;;;;;;;;5049558;28;19929;-59
2022/08/07 04:10:24;;;;;;;;;;;;;;;;;;5030705;28;20007;-59
2022/08/07 04:12:50;;;;;;;;;;;;;;;;;;5024319;28;19969;-58
2022/08/07 04:15:15;;;;;;;;;;;;;;;;;;5027135;28;19931;-56
2022/08/07 04:17:40;;;;;;;;;;;;;;;;;;5027518;28;19927;-56
2022/08/07 04:20:06;;;;;;;;;;;;;;;;;;5034806;28;19952;-57
2022/08/07 04:22:33;;;;;;;;;;;;;;;;;;5030680;28;19937;-58
2022/08/07 04:25:01;;;;;;;;;;;;;;;;;;5037581;28;19922;-57
2022/08/07 04:27:27;;;;;;;;;;;;;;;;;;5032032;28;19921;-57
2022/08/07 04:29:56;;;;;;;;;;;;;;;;;;5033797;28;19920;-58
2022/08/07 04:32:22;;;;;;;;;;;;;;;;;;5038728;28;19920;-57
2022/08/07 04:34:49;;;;;;;;;;;;;;;;;;5044474;28;20416;-58
2022/08/07 04:37:14;;;;;;;;;;;;;;;;;;5031693;28;19928;-59
2022/08/07 04:39:39;;;;;;;;;;;;;;;;;;5034601;28;19916;-57
2022/08/07 04:42:05;;;;;;;;;;;;;;;;;;5016520;28;19960;-57
2022/08/07 04:44:30;;;;;;;;;;;;;;;;;;5038097;28;20285;-55
2022/08/07 04:46:55;;;;;;;;;;;;;;;;;;5031869;28;20012;-55
2022/08/07 04:49:21;;;;;;;;;;;;;;;;;;5046872;28;19921;-59
2022/08/07 04:51:47;;;;;;;;;;;;;;;;;;5035273;28;19918;-58
2022/08/07 04:54:12;;;;;;;;;;;;;;;;;;5027524;28;19948;-60
2022/08/07 04:56:39;;;;;;;;;;;;;;;;;;5033916;28;20296;-56
2022/08/07 04:59:04;;;;;;;;;;;;;;;;;;5033205;28;19917;-59
2022/08/07 05:01:30;;;;;;;;;;;;;;;;;;5033748;28;19916;-59
2022/08/07 05:03:56;;;;;;;;;;;;;;;;;;5038743;28;19940;-58
2022/08/07 05:06:22;;;;;;;;;;;;;;;;;;5030099;28;19943;-55
2022/08/07 05:08:51;;;;;;;;;;;;;;;;;;5033601;28;20086;-57
2022/08/07 05:11:16;;;;;;;;;;;;;;;;;;5012381;28;20404;-57
2022/08/07 05:13:41;;;;;;;;;;;;;;;;;;5039377;28;19917;-56
2022/08/07 05:16:07;;;;;;;;;;;;;;;;;;5051149;28;19928;-58
2022/08/07 05:18:32;;;;;;;;;;;;;;;;;;5033315;28;19920;-59
2022/08/07 05:20:59;;;;;;;;;;;;;;;;;;5039711;28;19916;-59
2022/08/07 05:23:24;;;;;;;;;;;;;;;;;;5032042;28;19951;-59
2022/08/07 05:25:50;;;;;;;;;;;;;;;;;;5030394;28;19921;-59
2022/08/07 05:28:15;;;;;;;;;;;;;;;;;;5039590;28;19925;-57
2022/08/07 05:30:40;;;;;;;;;;;;;;;;;;5032309;28;19920;-58
2022/08/07 05:33:05;;;;;;;;;;;;;;;;;;5038542;28;19922;-58
2022/08/07 05:35:31;;;;;;;;;;;;;;;;;;5027715;28;19964;-58
2022/08/07 05:37:56;;;;;;;;;;;;;;;;;;5025548;28;19917;-57
2022/08/07 05:40:21;;;;;;;;;;;;;;;;;;5039603;28;19923;-57
2022/08/07 05:42:46;;;;;;;;;;;;;;;;;;5026183;28;19917;-58
2022/08/07 05:45:12;;;;;;;;;;;;;;;;;;5036810;28;20549;-56
2022/08/07 05:47:37;;;;;;;;;;;;;;;;;;5031005;28;20459;-59
2022/08/07 05:50:02;;;;;;;;;;;;;;;;;;5034784;28;20010;-56
2022/08/07 05:52:28;;;;;;;;;;;;;;;;;;5040701;28;19923;-56
2022/08/07 05:54:53;;;;;;;;;;;;;;;;;;5027954;28;19916;-57
2022/08/07 05:57:19;;;;;;;;;;;;;;;;;;5029241;28;19916;-58
2022/08/07 05:59:45;;;;;;;;;;;;;;;;;;5027162;28;19942;-56
2022/08/07 06:02:10;;;;;;;;;;;;;;;;;;5034450;28;19916;-57
2022/08/07 06:04:35;;;;;;;;;;;;;;;;;;5038357;28;19977;-56
2022/08/07 06:07:04;;;;;;;;;;;;;;;;;;5035339;28;19923;-58
2022/08/07 06:09:30;;;;;;;;;;;;;;;;;;5050077;28;19929;-57
2022/08/07 06:11:56;;;;;;;;;;;;;;;;;;5034620;28;19924;-58
2022/08/07 06:14:21;;;;;;;;;;;;;;;;;;5038325;28;19920;-57
2022/08/07 06:16:50;;;;;;;;;;;;;;;;;;5037495;28;20003;-58
2022/08/07 06:19:17;;;;;;;;;;;;;;;;;;5037361;28;19917;-57
2022/08/07 06:21:42;;;;;;;;;;;;;;;;;;5053575;28;19923;-57
2022/08/07 06:24:07;;;;;;;;;;;;;;;;;;5031133;28;19935;-58
2022/08/07 06:26:32;;;;;;;;;;;;;;;;;;5033063;28;20262;-56
2022/08/07 06:28:59;;;;;;;;;;;;;;;;;;5034631;28;20384;-58
2022/08/07 06:31:25;;;;;;;;;;;;;;;;;;5030328;28;19978;-55
2022/08/07 06:33:52;;;;;;;;;;;;;;;;;;5036638;28;20385;-57
2022/08/07 06:36:17;;;;;;;;;;;;;;;;;;5033101;28;19919;-57
2022/08/07 06:39:01;;;;;;;;;;;;;;;;;;5034290;28;19963;-58
2022/08/07 06:41:28;;;;;;;;;;;;;;;;;;5034636;28;19920;-58
2022/08/07 06:43:53;;;;;;;;;;;;;;;;;;5033012;28;19921;-59
2022/08/07 06:46:18;;;;;;;;;;;;;;;;;;5037724;28;20280;-59
2022/08/07 06:48:44;;;;;;;;;;;;;;;;;;5034299;28;19920;-59
2022/08/07 06:51:09;;;;;;;;;;;;;;;;;;5031796;28;19928;-57
2022/08/07 06:53:36;;;;;;;;;;;;;;;;;;5040966;28;19924;-58
2022/08/07 06:56:02;;;;;;;;;;;;;;;;;;5035412;28;19916;-58
2022/08/07 06:58:29;;;;;;;;;;;;;;;;;;5033604;28;19921;-57
2022/08/07 07:00:59;;;;;;;;;;;;;;;;;;5037014;28;19943;-58
2022/08/07 07:03:24;;;;;;;;;;;;;;;;;;5028366;28;19920;-59
2022/08/07 07:05:49;;;;;;;;;;;;;;;;;;5035542;28;20703;-59
2022/08/07 07:08:15;;;;;;;;;;;;;;;;;;5034847;28;19924;-59
2022/08/07 07:10:40;;;;;;;;;;;;;;;;;;5034493;28;20792;-58
2022/08/07 07:13:06;;;;;;;;;;;;;;;;;;5042775;28;19913;-58
2022/08/07 07:15:31;;;;;;;;;;;;;;;;;;5049353;28;19916;-58
2022/08/07 07:17:57;;;;;;;;;;;;;;;;;;5036958;28;19994;-60
2022/08/07 07:20:22;;;;;;;;;;;;;;;;;;5047657;28;19916;-58
2022/08/07 07:22:47;;;;;;;;;;;;;;;;;;5046243;28;19920;-58
2022/08/07 07:25:12;;;;;;;;;;;;;;;;;;5053304;28;19927;-58
2022/08/07 07:27:38;;;;;;;;;;;;;;;;;;5047346;28;19928;-59
2022/08/07 07:30:03;;;;;;;;;;;;;;;;;;5050702;28;19924;-59
2022/08/07 07:32:28;;;;;;;;;;;;;;;;;;5046711;28;19927;-58
2022/08/07 07:34:53;;;;;;;;;;;;;;;;;;5046193;28;20392;-58
2022/08/07 07:37:19;;;;;;;;;;;;;;;;;;5053722;28;19917;-58
2022/08/07 07:39:44;;;;;;;;;;;;;;;;;;5046881;28;19920;-58
2022/08/07 07:42:09;;;;;;;;;;;;;;;;;;5053311;28;20007;-59
2022/08/07 07:44:34;;;;;;;;;;;;;;;;;;5048806;28;19917;-59
2022/08/07 07:47:00;;;;;;;;;;;;;;;;;;5047328;28;19997;-60
2022/08/07 07:49:25;;;;;;;;;;;;;;;;;;5052890;28;19932;-58
2022/08/07 07:51:50;;;;;;;;;;;;;;;;;;5044215;28;20325;-59
2022/08/07 07:54:15;;;;;;;;;;;;;;;;;;5054588;28;19936;-57
2022/08/07 07:56:40;;;;;;;;;;;;;;;;;;5045122;28;19920;-60
2022/08/07 07:59:06;;;;;;;;;;;;;;;;;;5047833;28;19917;-58
2022/08/07 08:01:31;;;;;;;;;;;;;;;;;;5052241;28;19959;-58
2022/08/07 08:03:56;;;;;;;;;;;;;;;;;;5047984;28;19938;-58
2022/08/07 08:06:21;;;;;;;;;;;;;;;;;;5041643;28;19916;-58
2022/08/07 08:08:47;;;;;;;;;;;;;;;;;;5046482;28;20668;-59
2022/08/07 08:11:12;;;;;;;;;;;;;;;;;;5047354;28;19921;-59
2022/08/07 08:13:37;;;;;;;;;;;;;;;;;;5051358;28;19917;-59
2022/08/07 08:16:02;;;;;;;;;;;;;;;;;;5046502;28;19917;-59
2022/08/07 08:18:28;;;;;;;;;;;;;;;;;;5039478;28;19927;-59
2022/08/07 08:20:54;;;;;;;;;;;;;;;;;;5048598;28;20000;-59
2022/08/07 08:28:47;;;;;;;;;;;;;;;;;;5045858;28;19968;-58
2022/08/07 08:31:12;;;;;;;;;;;;;;;;;;5048796;28;20060;-59
2022/08/07 08:33:37;;;;;;;;;;;;;;;;;;5051672;28;20769;-58
2022/08/07 08:36:02;;;;;;;;;;;;;;;;;;5046374;28;19920;-58
2022/08/07 08:38:28;;;;;;;;;;;;;;;;;;5051876;28;19963;-60
2022/08/07 08:40:53;;;;;;;;;;;;;;;;;;5045179;28;19917;-59
2022/08/07 08:43:18;;;;;;;;;;;;;;;;;;5049275;28;20300;-62
2022/08/07 08:45:44;;;;;;;;;;;;;;;;;;5049647;28;19921;-59
2022/08/07 08:48:09;;;;;;;;;;;;;;;;;;5046561;28;19924;-58
2022/08/07 08:50:34;;;;;;;;;;;;;;;;;;5053031;28;20304;-58
2022/08/07 08:52:59;;;;;;;;;;;;;;;;;;5043965;28;19916;-60
2022/08/07 08:55:25;;;;;;;;;;;;;;;;;;5047533;28;19917;-61
2022/08/07 08:57:50;;;;;;;;;;;;;;;;;;5052364;28;20675;-59
2022/08/07 09:00:15;;;;;;;;;;;;;;;;;;5044872;28;19917;-59
2022/08/07 09:02:40;;;;;;;;;;;;;;;;;;5052747;28;19928;-58
2022/08/07 09:05:06;;;;;;;;;;;;;;;;;;5044484;28;20057;-59
2022/08/07 09:07:31;;;;;;;;;;;;;;;;;;5032539;28;19916;-61
2022/08/07 09:09:56;;;;;;;;;;;;;;;;;;5034927;28;20312;-60
2022/08/07 09:12:21;;;;;;;;;;;;;;;;;;5045262;28;19916;-59
2022/08/07 09:14:46;;;;;;;;;;;;;;;;;;5049561;28;20024;-59
2022/08/07 09:17:12;;;;;;;;;;;;;;;;;;5044312;28;19966;-60
2022/08/07 09:19:37;;;;;;;;;;;;;;;;;;5048303;28;19948;-59
2022/08/07 09:22:02;;;;;;;;;;;;;;;;;;5046890;28;20305;-59
2022/08/07 09:24:27;;;;;;;;;;;;;;;;;;5044357;28;19923;-58
2022/08/07 09:26:53;;;;;;;;;;;;;;;;;;5049053;28;20007;-57
2022/08/07 09:29:18;;;;;;;;;;;;;;;;;;5043947;28;20589;-59
2022/08/07 09:31:43;;;;;;;;;;;;;;;;;;5053626;28;20257;-58
2022/08/07 09:34:09;;;;;;;;;;;;;;;;;;5031316;28;20386;-59
2022/08/07 09:36:34;;;;;;;;;;;;;;;;;;5044354;28;19920;-58
2022/08/07 09:38:59;;;;;;;;;;;;;;;;;;5049265;28;19916;-57
2022/08/07 09:41:25;;;;;;;;;;;;;;;;;;5044784;28;20550;-58
2022/08/07 09:43:50;;;;;;;;;;;;;;;;;;5049095;28;19986;-57
2022/08/07 09:46:15;;;;;;;;;;;;;;;;;;5044395;28;20600;-59
2022/08/07 09:48:40;;;;;;;;;;;;;;;;;;5045642;28;19924;-59
2022/08/07 09:51:06;;;;;;;;;;;;;;;;;;5050234;28;20599;-59
2022/08/07 09:53:33;;;;;;;;;;;;;;;;;;5045959;28;19924;-59
2022/08/07 09:55:58;;;;;;;;;;;;;;;;;;5050865;28;19917;-59
2022/08/07 09:58:25;;;;;;;;;;;;;;;;;;5043846;28;19927;-60
2022/08/07 10:00:51;;;;;;;;;;;;;;;;;;5033496;28;19951;-59
2022/08/07 10:03:16;;;;;;;;;;;;;;;;;;5045171;28;20066;-59
2022/08/07 10:05:42;;;;;;;;;;;;;;;;;;5043477;28;19916;-59
2022/08/07 10:08:07;;;;;;;;;;;;;;;;;;5047694;28;19932;-59
2022/08/07 10:10:32;;;;;;;;;;;;;;;;;;5040989;28;20284;-59
2022/08/07 10:12:57;;;;;;;;;;;;;;;;;;5043686;28;19964;-59
2022/08/07 10:15:23;;;;;;;;;;;;;;;;;;5049777;28;19969;-59
2022/08/07 10:17:48;;;;;;;;;;;;;;;;;;5044961;28;19986;-59
2022/08/07 10:20:13;;;;;;;;;;;;;;;;;;5050957;28;20015;-59
2022/08/07 10:22:38;;;;;;;;;;;;;;;;;;5029432;28;19924;-59
2022/08/07 10:25:03;;;;;;;;;;;;;;;;;;5032699;28;19990;-59
2022/08/07 10:27:29;;;;;;;;;;;;;;;;;;5052718;28;19920;-59
2022/08/07 10:29:54;;;;;;;;;;;;;;;;;;5046639;28;20483;-58
2022/08/07 10:32:20;;;;;;;;;;;;;;;;;;5048073;28;19926;-58
2022/08/07 10:34:45;;;;;;;;;;;;;;;;;;5044267;28;20381;-58
2022/08/07 10:37:10;;;;;;;;;;;;;;;;;;5043386;28;19923;-58
2022/08/07 10:39:35;;;;;;;;;;;;;;;;;;5048695;28;19917;-59
2022/08/07 10:42:01;;;;;;;;;;;;;;;;;;5046786;28;19916;-59
2022/08/07 10:44:26;;;;;;;;;;;;;;;;;;5050222;28;19917;-59
2022/08/07 10:46:51;;;;;;;;;;;;;;;;;;5029843;28;20002;-59
2022/08/07 10:49:16;;;;;;;;;;;;;;;;;;5047582;28;19924;-58
2022/08/07 10:51:41;;;;;;;;;;;;;;;;;;5052502;28;19963;-58
2022/08/07 10:54:07;;;;;;;;;;;;;;;;;;5047479;28;19920;-58
2022/08/07 10:56:32;;;;;;;;;;;;;;;;;;5054650;28;19917;-58
2022/08/07 10:58:57;;;;;;;;;;;;;;;;;;5046058;28;20043;-58
2022/08/07 11:01:23;;;;;;;;;;;;;;;;;;5046321;28;19923;-59
2022/08/07 11:03:48;;;;;;;;;;;;;;;;;;5053716;28;20591;-60
2022/08/07 11:06:14;;;;;;;;;;;;;;;;;;5045455;28;19928;-59
2022/08/07 11:08:40;;;;;;;;;;;;;;;;;;5052320;28;19924;-58
2022/08/07 11:11:05;;;;;;;;;;;;;;;;;;5047052;28;19920;-59
2022/08/07 11:13:30;;;;;;;;;;;;;;;;;;5048013;28;20058;-59
2022/08/07 11:15:55;;;;;;;;;;;;;;;;;;5051882;28;19974;-60
2022/08/07 11:18:20;;;;;;;;;;;;;;;;;;5047182;28;19916;-59
2022/08/07 11:20:46;;;;;;;;;;;;;;;;;;5053351;28;19959;-58
2022/08/07 11:23:12;;;;;;;;;;;;;;;;;;5044938;28;19959;-58
2022/08/07 11:25:37;;;;;;;;;;;;;;;;;;5048536;28;20391;-58
2022/08/07 11:28:02;;;;;;;;;;;;;;;;;;5054348;28;19963;-59
2022/08/07 11:30:27;;;;;;;;;;;;;;;;;;5047186;28;19924;-60
2022/08/07 11:32:53;;;;;;;;;;;;;;;;;;5051939;28;19924;-60
2022/08/07 11:35:18;;;;;;;;;;;;;;;;;;5045959;28;19917;-60
2022/08/07 11:37:43;;;;;;;;;;;;;;;;;;5048754;28;19921;-59
2022/08/07 11:40:09;;;;;;;;;;;;;;;;;;5052864;28;19924;-60
2022/08/07 11:42:34;;;;;;;;;;;;;;;;;;5033857;28;20121;-60
2022/08/07 11:44:59;;;;;;;;;;;;;;;;;;5051754;28;19967;-61
2022/08/07 11:47:24;;;;;;;;;;;;;;;;;;5036936;28;20283;-59
2022/08/07 11:49:51;;;;;;;;;;;;;;;;;;5046055;28;20431;-59
2022/08/07 11:52:16;;;;;;;;;;;;;;;;;;5052611;28;19924;-60
2022/08/07 11:54:42;;;;;;;;;;;;;;;;;;5045973;28;19917;-60
2022/08/07 11:57:07;;;;;;;;;;;;;;;;;;5049972;28;19917;-60
2022/08/07 11:59:32;;;;;;;;;;;;;;;;;;5044528;28;19978;-60
2022/08/07 12:01:57;;;;;;;;;;;;;;;;;;5044075;28;19916;-60
2022/08/07 12:04:22;;;;;;;;;;;;;;;;;;5037527;28;20581;-59
2022/08/07 12:06:48;;;;;;;;;;;;;;;;;;5046385;28;20384;-60
2022/08/07 12:09:13;;;;;;;;;;;;;;;;;;5033204;28;19920;-61
2022/08/07 12:11:38;;;;;;;;;;;;;;;;;;5046862;28;19917;-60
2022/08/07 12:14:04;;;;;;;;;;;;;;;;;;5044485;28;21082;-60
2022/08/07 12:16:29;;;;;;;;;;;;;;;;;;5037630;28;19912;-60
2022/08/07 12:18:54;;;;;;;;;;;;;;;;;;5047785;28;19921;-60
2022/08/07 12:21:20;;;;;;;;;;;;;;;;;;5051573;28;19923;-61
2022/08/07 12:23:45;;;;;;;;;;;;;;;;;;5048818;28;20301;-59
2022/08/07 12:26:10;;;;;;;;;;;;;;;;;;5044622;28;19917;-60
2022/08/07 12:28:36;;;;;;;;;;;;;;;;;;5050765;28;19967;-60
2022/08/07 12:31:01;;;;;;;;;;;;;;;;;;5044934;28;19989;-59
2022/08/07 12:33:26;;;;;;;;;;;;;;;;;;5046436;28;19917;-60
2022/08/07 12:35:51;;;;;;;;;;;;;;;;;;5051095;28;20000;-58
2022/08/07 12:38:16;;;;;;;;;;;;;;;;;;5048477;28;20003;-59
2022/08/07 12:40:42;;;;;;;;;;;;;;;;;;5052365;28;19926;-59
2022/08/07 12:43:07;;;;;;;;;;;;;;;;;;5044270;28;19989;-60
2022/08/07 12:45:32;;;;;;;;;;;;;;;;;;5035540;28;19927;-60
2022/08/07 12:47:57;;;;;;;;;;;;;;;;;;5050670;28;20138;-58
2022/08/07 12:50:23;;;;;;;;;;;;;;;;;;5034169;28;19975;-58
2022/08/07 12:52:48;;;;;;;;;;;;;;;;;;5052258;28;19956;-59
2022/08/07 12:55:14;;;;;;;;;;;;;;;;;;5044872;28;19916;-59
2022/08/07 12:57:39;;;;;;;;;;;;;;;;;;5046143;28;20291;-60
2022/08/07 13:00:06;;;;;;;;;;;;;;;;;;5048842;28;19967;-60
2022/08/07 13:02:32;;;;;;;;;;;;;;;;;;5041658;28;19999;-59
2022/08/07 13:04:57;;;;;;;;;;;;;;;;;;5051532;28;20007;-60
2022/08/07 13:07:23;;;;;;;;;;;;;;;;;;5042329;28;20384;-61
2022/08/07 13:09:48;;;;;;;;;;;;;;;;;;5029053;28;19920;-60
2022/08/07 13:12:13;;;;;;;;;;;;;;;;;;5049012;28;19920;-60
2022/08/07 13:14:39;;;;;;;;;;;;;;;;;;5043957;28;19920;-59
2022/08/07 13:17:04;;;;;;;;;;;;;;;;;;5049580;28;20038;-59
2022/08/07 13:19:29;;;;;;;;;;;;;;;;;;5043543;28;19917;-59
2022/08/07 13:21:54;;;;;;;;;;;;;;;;;;5043555;28;19920;-60
2022/08/07 13:24:19;;;;;;;;;;;;;;;;;;5052772;28;20387;-59
2022/08/07 13:26:45;;;;;;;;;;;;;;;;;;5044592;28;19917;-60
2022/08/07 13:29:11;;;;;;;;;;;;;;;;;;5048423;28;19928;-60
2022/08/07 13:31:36;;;;;;;;;;;;;;;;;;5044583;28;20347;-60
2022/08/07 13:34:01;;;;;;;;;;;;;;;;;;5043812;28;19923;-60
2022/08/07 13:36:26;;;;;;;;;;;;;;;;;;5050176;28;20530;-59
2022/08/07 13:38:51;;;;;;;;;;;;;;;;;;5025693;28;20548;-60
2022/08/07 13:41:16;;;;;;;;;;;;;;;;;;5053245;28;19969;-60
2022/08/07 13:43:42;;;;;;;;;;;;;;;;;;5044056;28;19913;-60
2022/08/07 13:46:07;;;;;;;;;;;;;;;;;;5044132;28;19916;-60
2022/08/07 13:48:32;;;;;;;;;;;;;;;;;;5041081;28;20011;-60
2022/08/07 13:50:57;;;;;;;;;;;;;;;;;;5031034;28;20343;-60
2022/08/07 13:53:23;;;;;;;;;;;;;;;;;;5050916;28;19920;-60
2022/08/07 13:55:48;;;;;;;;;;;;;;;;;;5042945;28;20297;-60
2022/08/07 14:00:57;;;;;;;;;;;;;;;;;;5040156;28;19916;-61
2022/08/07 14:03:22;;;;;;;;;;;;;;;;;;5043661;28;19932;-60
2022/08/07 14:05:47;;;;;;;;;;;;;;;;;;5052199;28;20023;-60
2022/08/07 14:08:13;;;;;;;;;;;;;;;;;;5042855;28;19912;-60
2022/08/07 14:10:38;;;;;;;;;;;;;;;;;;5045430;28;19967;-60
2022/08/07 14:13:03;;;;;;;;;;;;;;;;;;5049441;28;19950;-60
2022/08/07 14:15:28;;;;;;;;;;;;;;;;;;5043999;28;19974;-61
2022/08/07 14:17:54;;;;;;;;;;;;;;;;;;5049881;28;20274;-60
2022/08/07 14:20:19;;;;;;;;;;;;;;;;;;5044296;28;20025;-60
2022/08/07 14:22:44;;;;;;;;;;;;;;;;;;5042502;28;20518;-61
2022/08/07 14:25:09;;;;;;;;;;;;;;;;;;5052919;28;20761;-60
2022/08/07 14:27:34;;;;;;;;;;;;;;;;;;5047645;28;20035;-60
2022/08/07 14:29:59;;;;;;;;;;;;;;;;;;5054063;28;19923;-60
2022/08/07 14:32:27;;;;;;;;;;;;;;;;;;5046515;28;19917;-60
2022/08/07 14:34:52;;;;;;;;;;;;;;;;;;5047073;28;19912;-60
2022/08/07 14:37:18;;;;;;;;;;;;;;;;;;5055154;28;20569;-60
2022/08/07 14:39:43;;;;;;;;;;;;;;;;;;5049191;28;19970;-60
2022/08/07 14:42:08;;;;;;;;;;;;;;;;;;5054095;28;20803;-60
2022/08/07 14:44:33;;;;;;;;;;;;;;;;;;5046267;28;19956;-61
2022/08/07 14:46:59;;;;;;;;;;;;;;;;;;5046246;28;19923;-60
2022/08/07 14:49:24;;;;;;;;;;;;;;;;;;5051499;28;19916;-60
2022/08/07 14:51:49;;;;;;;;;;;;;;;;;;5045792;28;20357;-61
2022/08/07 14:54:14;;;;;;;;;;;;;;;;;;5054483;28;19966;-60
2022/08/07 14:56:40;;;;;;;;;;;;;;;;;;5046377;28;19916;-60
2022/08/07 14:59:05;;;;;;;;;;;;;;;;;;5029207;28;20285;-61
2022/08/07 15:01:30;;;;;;;;;;;;;;;;;;5050058;28;19924;-60
2022/08/07 15:03:55;;;;;;;;;;;;;;;;;;5044989;28;19991;-60
2022/08/07 15:06:20;;;;;;;;;;;;;;;;;;5042861;28;20277;-61
2022/08/07 15:08:48;;;;;;;;;;;;;;;;;;5046596;28;19920;-60
2022/08/07 15:11:14;;;;;;;;;;;;;;;;;;5045961;28;19916;-61
2022/08/07 15:13:39;;;;;;;;;;;;;;;;;;5048337;28;19921;-61
2022/08/07 15:16:04;;;;;;;;;;;;;;;;;;5043459;28;20363;-60
2022/08/07 15:18:29;;;;;;;;;;;;;;;;;;5049777;28;19920;-60
2022/08/07 15:20:55;;;;;;;;;;;;;;;;;;5046233;28;19921;-60
2022/08/07 15:23:20;;;;;;;;;;;;;;;;;;5045592;28;19928;-60
2022/08/07 15:25:45;;;;;;;;;;;;;;;;;;5054073;28;19925;-60
2022/08/07 15:28:10;;;;;;;;;;;;;;;;;;5044388;28;19916;-60
2022/08/07 15:30:36;;;;;;;;;;;;;;;;;;5052288;28;19927;-60
2022/08/07 15:33:01;;;;;;;;;;;;;;;;;;5043540;28;19987;-62
2022/08/07 15:35:26;;;;;;;;;;;;;;;;;;5023552;28;20419;-60
2022/08/07 15:37:51;;;;;;;;;;;;;;;;;;5050548;28;20359;-60
2022/08/07 15:40:17;;;;;;;;;;;;;;;;;;5042817;28;19921;-60
2022/08/07 15:42:46;;;;;;;;;;;;;;;;;;5050076;28;19921;-60
2022/08/07 15:45:11;;;;;;;;;;;;;;;;;;5041924;28;19917;-60
2022/08/07 15:47:39;;;;;;;;;;;;;;;;;;5042897;28;19923;-60
2022/08/07 15:50:04;;;;;;;;;;;;;;;;;;5050620;28;19916;-60
2022/08/07 15:52:30;;;;;;;;;;;;;;;;;;5044129;28;20025;-60
2022/08/07 15:54:55;;;;;;;;;;;;;;;;;;5049826;28;19920;-60
2022/08/07 15:57:21;;;;;;;;;;;;;;;;;;5042594;28;19916;-60
2022/08/07 15:59:46;;;;;;;;;;;;;;;;;;5040749;28;20046;-60
2022/08/07 16:02:12;;;;;;;;;;;;;;;;;;5039774;28;20006;-61
2022/08/07 16:04:37;;;;;;;;;;;;;;;;;;5041667;28;19917;-60
2022/08/07 16:07:02;;;;;;;;;;;;;;;;;;5047769;28;19924;-60
2022/08/07 16:09:27;;;;;;;;;;;;;;;;;;5042832;28;19996;-60
2022/08/07 16:11:52;;;;;;;;;;;;;;;;;;5042254;28;19923;-60
2022/08/07 16:14:18;;;;;;;;;;;;;;;;;;5048134;28;19916;-60
2022/08/07 16:16:43;;;;;;;;;;;;;;;;;;5030177;28;19978;-59
2022/08/07 16:19:08;;;;;;;;;;;;;;;;;;5049000;28;19971;-60
2022/08/07 16:21:33;;;;;;;;;;;;;;;;;;5041469;28;20868;-59
2022/08/07 16:23:58;;;;;;;;;;;;;;;;;;5042048;28;19978;-60
2022/08/07 16:26:24;;;;;;;;;;;;;;;;;;5049235;28;20018;-60
2022/08/07 16:28:49;;;;;;;;;;;;;;;;;;5044869;28;19916;-59
2022/08/07 16:31:14;;;;;;;;;;;;;;;;;;5048964;28;20007;-59
2022/08/07 16:33:39;;;;;;;;;;;;;;;;;;5044902;28;19920;-60
2022/08/07 16:36:04;;;;;;;;;;;;;;;;;;5042027;28;19928;-59
2022/08/07 16:38:30;;;;;;;;;;;;;;;;;;5049729;28;19989;-60
2022/08/07 16:40:56;;;;;;;;;;;;;;;;;;5043475;28;20487;-60